Time;durP1;ratioP1;P1;durP2;ratioP2;P2;SDS_P1;SDS_P2;PMS_P1;PMS_P2;Temp;Humidity;BMP_temperature;BMP_pressure;BME280_temperature;BME280_humidity;BME280_pressure;Samples;Min_cycle;Max_cycle;Signal;HPM_P1;HPM_P2
2022/07/22 00:01:07;;;;;;;;;18.67;18.67;;;;;-145.45;100.00;57426.63;5079103;28;45330;-73
2022/07/22 00:03:32;;;;;;;;;23.00;21.67;;;;;-145.45;100.00;57426.63;5086704;27;46058;-73
2022/07/22 00:05:58;;;;;;;;;27.00;22.67;;;;;-145.45;100.00;57426.63;5077356;27;45343;-73
2022/07/22 00:08:23;;;;;;;;;25.00;23.67;;;;;-145.45;100.00;57426.63;5096440;27;45489;-73
2022/07/22 00:10:48;;;;;;;;;23.33;20.33;;;;;-145.45;100.00;57426.63;5088957;27;45383;-73
2022/07/22 00:13:14;;;;;;;;;26.33;22.67;;;;;-145.45;100.00;57426.63;5072241;27;46599;-73
2022/07/22 00:15:39;;;;;;;;;22.00;20.33;;;;;-145.45;100.00;57426.63;5079267;27;45288;-73
2022/07/22 00:18:05;;;;;;;;;23.33;19.67;;;;;-145.45;100.00;57426.63;5096737;27;45505;-73
2022/07/22 00:20:30;;;;;;;;;23.67;22.67;;;;;-145.45;100.00;57426.63;5085838;27;45224;-73
2022/07/22 00:22:55;;;;;;;;;23.67;21.67;;;;;-145.45;100.00;57426.63;5088233;27;46242;-73
2022/07/22 00:25:21;;;;;;;;;25.67;22.00;;;;;-145.45;100.00;57426.63;5093221;27;45235;-73
2022/07/22 00:27:46;;;;;;;;;18.00;18.00;;;;;-145.45;100.00;57426.63;5076815;27;45284;-73
2022/07/22 00:30:12;;;;;;;;;24.33;21.67;;;;;-145.45;100.00;57426.63;5087289;27;45227;-74
2022/07/22 00:32:37;;;;;;;;;22.67;19.67;;;;;-145.45;100.00;57426.63;5071064;27;46327;-73
2022/07/22 00:35:03;;;;;;;;;23.00;21.33;;;;;-145.45;100.00;57426.63;5076198;28;45391;-73
2022/07/22 00:37:29;;;;;;;;;20.67;20.67;;;;;-145.45;100.00;57426.63;5087369;27;45501;-73
2022/07/22 00:39:55;;;;;;;;;21.33;19.67;;;;;-145.45;100.00;57426.63;5091611;27;45492;-73
2022/07/22 00:42:20;;;;;;;;;22.33;20.33;;;;;-145.45;100.00;57426.63;5087395;27;48335;-73
2022/07/22 00:44:45;;;;;;;;;21.00;20.00;;;;;-145.45;100.00;57426.63;5082477;27;45452;-73
2022/07/22 00:47:11;;;;;;;;;25.00;21.00;;;;;-145.45;100.00;57426.63;5072843;27;45733;-73
2022/07/22 00:49:36;;;;;;;;;22.33;19.67;;;;;-145.45;100.00;57426.63;5082861;27;45370;-73
2022/07/22 00:52:02;;;;;;;;;19.67;18.00;;;;;-145.45;100.00;57426.63;5085024;27;45390;-73
2022/07/22 00:54:28;;;;;;;;;28.33;25.33;;;;;-145.45;100.00;57426.63;5087093;27;45547;-73
2022/07/22 00:56:54;;;;;;;;;28.67;28.67;;;;;-145.45;100.00;57426.63;5083630;27;45275;-73
2022/07/22 00:59:20;;;;;;;;;31.33;28.00;;;;;-145.45;100.00;57426.63;5087947;27;45363;-74
2022/07/22 01:01:45;;;;;;;;;28.67;25.00;;;;;-145.45;100.00;57426.63;5082279;27;45205;-74
2022/07/22 01:04:11;;;;;;;;;28.00;27.00;;;;;-145.45;100.00;57426.63;5089959;27;45299;-74
2022/07/22 01:06:36;;;;;;;;;26.67;24.67;;;;;-145.45;100.00;57426.63;5081549;27;45328;-73
2022/07/22 01:09:02;;;;;;;;;21.67;19.67;;;;;-145.45;100.00;57426.63;5082587;27;45624;-74
2022/07/22 01:11:27;;;;;;;;;22.67;22.33;;;;;-145.45;100.00;57426.63;5082841;27;47041;-73
2022/07/22 01:13:55;;;;;;;;;27.00;23.67;;;;;-145.45;100.00;57426.63;5073644;27;45576;-74
2022/07/22 01:16:21;;;;;;;;;29.00;26.33;;;;;-145.45;100.00;57426.63;5081539;27;45335;-72
2022/07/22 01:18:46;;;;;;;;;25.33;23.00;;;;;-145.45;100.00;57426.63;5092763;27;45034;-72
2022/07/22 01:21:14;;;;;;;;;24.00;23.00;;;;;-145.45;100.00;57426.63;5087602;27;45883;-73
2022/07/22 01:23:40;;;;;;;;;24.33;22.33;;;;;-145.45;100.00;57426.63;5091080;27;45775;-73
2022/07/22 01:26:06;;;;;;;;;24.00;21.67;;;;;-145.45;100.00;57426.63;5086201;27;45290;-73
2022/07/22 01:28:32;;;;;;;;;25.67;22.00;;;;;-145.45;100.00;57426.63;5076459;27;45854;-73
2022/07/22 01:30:57;;;;;;;;;28.67;23.33;;;;;-145.45;100.00;57426.63;5096365;27;46296;-72
2022/07/22 01:33:23;;;;;;;;;25.00;22.33;;;;;-145.45;100.00;57426.63;5092990;27;45409;-72
2022/07/22 01:35:50;;;;;;;;;23.00;21.33;;;;;-145.45;100.00;57426.63;5077762;27;45377;-73
2022/07/22 01:38:16;;;;;;;;;22.67;21.00;;;;;-145.45;100.00;57426.63;5091498;27;45227;-73
2022/07/22 01:40:43;;;;;;;;;17.33;15.67;;;;;-145.45;100.00;57426.63;5082748;27;46119;-72
2022/07/22 01:43:08;;;;;;;;;28.00;20.67;;;;;-145.45;100.00;57426.63;5085044;27;45368;-73
2022/07/22 01:45:34;;;;;;;;;21.67;18.67;;;;;-145.45;100.00;57426.63;5095596;27;45282;-73
2022/07/22 01:48:00;;;;;;;;;22.00;19.00;;;;;-145.45;100.00;57426.63;5088055;27;45444;-73
2022/07/22 01:50:25;;;;;;;;;20.00;17.00;;;;;-145.45;100.00;57426.63;5086219;27;46232;-73
2022/07/22 01:52:54;;;;;;;;;20.00;17.67;;;;;-145.45;100.00;57426.63;5086447;27;45398;-73
2022/07/22 01:55:19;;;;;;;;;15.00;15.00;;;;;-145.45;100.00;57426.63;5086574;27;45312;-73
2022/07/22 01:57:45;;;;;;;;;19.33;19.33;;;;;-145.45;100.00;57426.63;5086952;27;45352;-73
2022/07/22 02:00:11;;;;;;;;;18.33;16.00;;;;;-145.45;100.00;57426.63;5099792;27;45421;-73
2022/07/22 02:02:37;;;;;;;;;22.33;21.00;;;;;-145.45;100.00;57426.63;5072512;27;45476;-73
2022/07/22 02:05:04;;;;;;;;;18.33;16.33;;;;;-145.45;100.00;57426.63;5080260;27;45406;-73
2022/07/22 02:07:30;;;;;;;;;20.00;15.00;;;;;-145.45;100.00;57426.63;5097519;27;45308;-73
2022/07/22 02:09:55;;;;;;;;;20.00;18.00;;;;;-145.45;100.00;57426.63;5086200;27;46069;-73
2022/07/22 02:12:21;;;;;;;;;18.67;18.67;;;;;-145.45;100.00;57426.63;5084166;27;45390;-72
2022/07/22 02:14:46;;;;;;;;;18.00;14.00;;;;;-145.45;100.00;57426.63;5076497;27;45277;-73
2022/07/22 02:17:12;;;;;;;;;15.33;15.33;;;;;-145.45;100.00;57426.63;5084898;27;45450;-73
2022/07/22 02:19:38;;;;;;;;;18.00;17.00;;;;;-145.45;100.00;57426.63;5072768;28;45614;-73
2022/07/22 02:22:04;;;;;;;;;18.00;17.00;;;;;-145.45;100.00;57426.63;5083824;27;45422;-73
2022/07/22 02:24:29;;;;;;;;;24.33;17.33;;;;;-145.45;100.00;57426.63;5082900;27;45349;-73
2022/07/22 02:26:55;;;;;;;;;20.67;17.00;;;;;-145.45;100.00;57426.63;5082157;27;45363;-72
2022/07/22 02:29:20;;;;;;;;;17.00;14.67;;;;;-145.45;100.00;57426.63;5084657;27;45352;-72
2022/07/22 02:31:46;;;;;;;;;20.67;19.33;;;;;-145.45;100.00;57426.63;5086279;27;45474;-73
2022/07/22 02:34:11;;;;;;;;;15.00;15.00;;;;;-145.45;100.00;57426.63;5078287;27;45276;-72
2022/07/22 02:36:36;;;;;;;;;20.67;18.67;;;;;-145.45;100.00;57426.63;5079262;27;45328;-72
2022/07/22 02:39:03;;;;;;;;;15.67;15.00;;;;;-145.45;100.00;57426.63;5091855;27;46246;-72
2022/07/22 02:41:28;;;;;;;;;21.67;17.00;;;;;-145.45;100.00;57426.63;5078592;27;45249;-72
2022/07/22 02:43:56;;;;;;;;;15.00;14.00;;;;;-145.45;100.00;57426.63;5086089;27;45447;-72
2022/07/22 02:46:23;;;;;;;;;19.33;17.33;;;;;-145.45;100.00;57426.63;5079355;27;45332;-73
2022/07/22 02:48:48;;;;;;;;;20.33;20.00;;;;;-145.45;100.00;57426.63;5083270;27;46203;-73
2022/07/22 02:51:14;;;;;;;;;17.33;17.33;;;;;-145.45;100.00;57426.63;5079932;27;45351;-72
2022/07/22 02:53:39;;;;;;;;;20.00;16.33;;;;;-145.45;100.00;57426.63;5090132;27;45432;-73
2022/07/22 02:56:05;;;;;;;;;17.00;15.00;;;;;-145.45;100.00;57426.63;5079630;27;45458;-72
2022/07/22 02:58:30;;;;;;;;;16.33;14.33;;;;;-145.45;100.00;57426.63;5074730;27;46816;-72
2022/07/22 03:00:55;;;;;;;;;17.00;15.00;;;;;-145.45;100.00;57426.63;5079761;28;45241;-73
2022/07/22 03:03:21;;;;;;;;;16.00;16.00;;;;;-145.45;100.00;57426.63;5085265;27;45854;-73
2022/07/22 03:05:46;;;;;;;;;17.67;16.67;;;;;-145.45;100.00;57426.63;5085448;27;45494;-72
2022/07/22 03:08:12;;;;;;;;;14.33;14.33;;;;;-145.45;100.00;57426.63;5097684;27;46140;-72
2022/07/22 03:10:37;;;;;;;;;17.67;16.00;;;;;-145.45;100.00;57426.63;5089316;27;45281;-72
2022/07/22 03:13:03;;;;;;;;;18.00;16.00;;;;;-145.45;100.00;57426.63;5089216;27;45348;-72
2022/07/22 03:15:28;;;;;;;;;13.00;13.00;;;;;-145.45;100.00;57426.63;5088280;27;45265;-72
2022/07/22 03:17:54;;;;;;;;;17.33;16.00;;;;;-145.45;100.00;57426.63;5087275;27;45339;-72
2022/07/22 03:20:19;;;;;;;;;20.00;18.00;;;;;-145.45;100.00;57426.63;5091318;27;45345;-72
2022/07/22 03:22:45;;;;;;;;;15.00;15.00;;;;;-145.45;100.00;57426.63;5095248;27;45499;-73
2022/07/22 03:25:10;;;;;;;;;14.00;14.00;;;;;-145.45;100.00;57426.63;5086715;27;45356;-72
2022/07/22 03:27:36;;;;;;;;;17.33;15.67;;;;;-145.45;100.00;57426.63;5090984;27;45366;-73
2022/07/22 03:30:03;;;;;;;;;17.33;15.33;;;;;-145.45;100.00;57426.63;5068961;28;45804;-73
2022/07/22 03:32:28;;;;;;;;;16.00;15.33;;;;;-145.45;100.00;57426.63;5085989;27;45472;-73
2022/07/22 03:34:53;;;;;;;;;16.33;14.00;;;;;-145.45;100.00;57426.63;5085744;27;45449;-73
2022/07/22 03:37:19;;;;;;;;;14.67;14.33;;;;;-145.45;100.00;57426.63;5076733;27;47062;-73
2022/07/22 03:39:44;;;;;;;;;15.33;14.33;;;;;-145.45;100.00;57426.63;5085140;27;45287;-73
2022/07/22 03:42:09;;;;;;;;;19.00;17.33;;;;;-145.45;100.00;57426.63;5070928;27;45477;-73
2022/07/22 03:44:35;;;;;;;;;13.00;13.00;;;;;-145.45;100.00;57426.63;5085140;27;45572;-74
2022/07/22 03:47:00;;;;;;;;;16.00;16.00;;;;;-145.45;100.00;57426.63;5081774;27;45244;-74
2022/07/22 03:49:25;;;;;;;;;17.33;15.67;;;;;-145.45;100.00;57426.63;5089153;27;45330;-73
2022/07/22 03:51:51;;;;;;;;;16.67;16.67;;;;;-145.45;100.00;57426.63;5079242;27;46128;-73
2022/07/22 03:54:16;;;;;;;;;17.33;15.33;;;;;-145.45;100.00;57426.63;5072314;27;45988;-74
2022/07/22 03:56:42;;;;;;;;;14.67;14.33;;;;;-145.45;100.00;57426.63;5074441;27;46964;-73
2022/07/22 03:59:07;;;;;;;;;16.00;14.33;;;;;-145.45;100.00;57426.63;5079001;27;45313;-73
2022/07/22 04:01:32;;;;;;;;;15.00;15.00;;;;;-145.45;100.00;57426.63;5090810;27;45315;-73
2022/07/22 04:03:58;;;;;;;;;19.00;17.33;;;;;-145.45;100.00;57426.63;5095388;27;45659;-73
2022/07/22 04:06:23;;;;;;;;;13.67;13.67;;;;;-145.45;100.00;57426.63;5082250;27;46001;-73
2022/07/22 04:08:49;;;;;;;;;13.33;13.00;;;;;-145.45;100.00;57426.63;5077618;27;45540;-73
2022/07/22 04:11:14;;;;;;;;;18.00;14.67;;;;;-145.45;100.00;57426.63;5096903;27;45356;-73
2022/07/22 04:13:39;;;;;;;;;14.33;13.67;;;;;-145.45;100.00;57426.63;5080075;27;45897;-74
2022/07/22 04:16:05;;;;;;;;;18.00;16.33;;;;;-145.45;100.00;57426.63;5082793;27;45248;-74
2022/07/22 04:18:31;;;;;;;;;18.33;17.00;;;;;-145.45;100.00;57426.63;5090155;27;45268;-73
2022/07/22 04:20:56;;;;;;;;;21.33;16.33;;;;;-145.45;100.00;57426.63;5088312;27;45255;-73
2022/07/22 04:23:22;;;;;;;;;15.67;13.00;;;;;-145.45;100.00;57426.63;5075740;28;46136;-73
2022/07/22 04:25:48;;;;;;;;;16.33;15.00;;;;;-145.45;100.00;57426.63;5080781;27;47064;-73
2022/07/22 04:28:13;;;;;;;;;20.67;17.67;;;;;-145.45;100.00;57426.63;5085840;27;45339;-74
2022/07/22 04:30:38;;;;;;;;;17.00;15.33;;;;;-145.45;100.00;57426.63;5083861;27;45438;-73
2022/07/22 04:33:04;;;;;;;;;16.00;14.00;;;;;-145.45;100.00;57426.63;5078270;27;46080;-74
2022/07/22 04:35:30;;;;;;;;;23.00;18.00;;;;;-145.45;100.00;57426.63;5089198;27;45495;-73
2022/07/22 04:37:55;;;;;;;;;15.00;13.00;;;;;-145.45;100.00;57426.63;5087107;27;45419;-73
2022/07/22 04:40:21;;;;;;;;;17.00;13.33;;;;;-145.45;100.00;57426.63;5077865;27;45387;-73
2022/07/22 04:42:46;;;;;;;;;18.33;14.67;;;;;-145.45;100.00;57426.63;5080104;27;45806;-73
2022/07/22 04:45:11;;;;;;;;;18.33;15.33;;;;;-145.45;100.00;57426.63;5091190;27;45359;-73
2022/07/22 04:47:37;;;;;;;;;19.67;16.67;;;;;-145.45;100.00;57426.63;5076745;27;45289;-73
2022/07/22 04:50:03;;;;;;;;;18.33;17.00;;;;;-145.45;100.00;57426.63;5090640;27;45286;-73
2022/07/22 04:52:28;;;;;;;;;18.33;16.00;;;;;-145.45;100.00;57426.63;5085774;27;45426;-73
2022/07/22 04:54:54;;;;;;;;;17.00;16.00;;;;;-145.45;100.00;57426.63;5087349;27;46156;-73
2022/07/22 04:57:21;;;;;;;;;20.33;16.67;;;;;-145.45;100.00;57426.63;5084798;27;45351;-73
2022/07/22 04:59:46;;;;;;;;;23.67;18.67;;;;;-145.45;100.00;57426.63;5079316;27;45443;-73
2022/07/22 05:02:11;;;;;;;;;21.33;16.00;;;;;-145.45;100.00;57426.63;5085142;27;45207;-73
2022/07/22 05:04:37;;;;;;;;;16.33;16.00;;;;;-145.45;100.00;57426.63;5086447;27;45430;-73
2022/07/22 05:07:02;;;;;;;;;16.67;14.33;;;;;-145.45;100.00;57426.63;5086760;27;45288;-73
2022/07/22 05:09:28;;;;;;;;;19.33;16.00;;;;;-145.45;100.00;57426.63;5089173;27;45290;-73
2022/07/22 05:11:54;;;;;;;;;19.33;18.33;;;;;-145.45;100.00;57426.63;5065570;27;47149;-74
2022/07/22 05:14:20;;;;;;;;;17.00;14.33;;;;;-145.45;100.00;57426.63;5097991;27;45842;-73
2022/07/22 05:16:45;;;;;;;;;21.00;19.67;;;;;-145.45;100.00;57426.63;5100120;27;45525;-73
2022/07/22 05:19:11;;;;;;;;;23.33;20.00;;;;;-145.45;100.00;57426.63;5095050;27;45278;-73
2022/07/22 05:21:36;;;;;;;;;18.67;17.33;;;;;-145.45;100.00;57426.63;5067202;27;46829;-73
2022/07/22 05:24:01;;;;;;;;;18.00;16.67;;;;;-145.45;100.00;57426.63;5088358;27;46598;-73
2022/07/22 05:26:29;;;;;;;;;22.67;17.67;;;;;-145.45;100.00;57426.63;5084759;27;45390;-72
2022/07/22 05:28:54;;;;;;;;;22.33;18.67;;;;;-145.45;100.00;57426.63;5080485;27;44805;-72
2022/07/22 05:31:19;;;;;;;;;18.33;17.00;;;;;-145.45;100.00;57426.63;5076630;28;46914;-72
2022/07/22 05:33:45;;;;;;;;;18.67;17.00;;;;;-145.45;100.00;57426.63;5077237;27;47091;-72
2022/07/22 05:36:10;;;;;;;;;19.67;18.00;;;;;-145.45;100.00;57426.63;5082469;27;45307;-74
2022/07/22 05:38:35;;;;;;;;;19.67;17.00;;;;;-145.45;100.00;57426.63;5086499;27;45210;-72
2022/07/22 05:41:03;;;;;;;;;19.00;15.67;;;;;-145.45;100.00;57426.63;5082756;27;45466;-72
2022/07/22 05:43:28;;;;;;;;;20.00;19.00;;;;;-145.45;100.00;57426.63;5092003;27;45420;-71
2022/07/22 05:45:54;;;;;;;;;21.00;16.67;;;;;-145.45;100.00;57426.63;5084123;27;45314;-71
2022/07/22 05:48:19;;;;;;;;;16.00;15.67;;;;;-145.45;100.00;57426.63;5088222;27;45616;-72
2022/07/22 05:50:45;;;;;;;;;20.33;18.67;;;;;-145.45;100.00;57426.63;5080690;27;45506;-71
2022/07/22 05:53:10;;;;;;;;;17.67;15.67;;;;;-145.45;100.00;57426.63;5076162;28;45394;-71
2022/07/22 05:55:35;;;;;;;;;12.67;11.00;;;;;-145.45;100.00;57426.63;5080511;27;45462;-71
2022/07/22 05:58:01;;;;;;;;;18.33;16.67;;;;;-145.45;100.00;57426.63;5087346;27;45303;-73
2022/07/22 06:00:26;;;;;;;;;18.67;17.67;;;;;-145.45;100.00;57426.63;5080459;27;45461;-73
2022/07/22 06:02:52;;;;;;;;;22.33;17.00;;;;;-145.45;100.00;57426.63;5089315;27;45304;-72
2022/07/22 06:05:18;;;;;;;;;19.33;16.67;;;;;-145.45;100.00;57426.63;5073716;28;45700;-72
2022/07/22 06:07:43;;;;;;;;;19.33;17.00;;;;;-145.45;100.00;57426.63;5095521;27;45379;-72
2022/07/22 06:10:09;;;;;;;;;18.33;16.33;;;;;-145.45;100.00;57426.63;5082656;27;46185;-73
2022/07/22 06:12:34;;;;;;;;;20.33;17.00;;;;;-145.45;100.00;57426.63;5064134;28;47643;-72
2022/07/22 06:14:59;;;;;;;;;18.00;15.33;;;;;-145.45;100.00;57426.63;5090320;27;45371;-72
2022/07/22 06:17:25;;;;;;;;;15.33;15.00;;;;;-145.45;100.00;57426.63;5070388;27;45319;-72
2022/07/22 06:19:50;;;;;;;;;18.67;15.67;;;;;-145.45;100.00;57426.63;5089942;27;45271;-73
2022/07/22 06:22:17;;;;;;;;;25.00;18.67;;;;;-145.45;100.00;57426.63;5082446;27;45620;-74
2022/07/22 06:24:44;;;;;;;;;18.00;14.33;;;;;-145.45;100.00;57426.63;5089612;27;45315;-74
2022/07/22 06:27:09;;;;;;;;;18.67;17.33;;;;;-145.45;100.00;57426.63;5083439;27;45261;-72
2022/07/22 06:29:34;;;;;;;;;27.00;19.00;;;;;-145.45;100.00;57426.63;5095857;27;45382;-72
2022/07/22 06:32:00;;;;;;;;;17.67;14.33;;;;;-145.45;100.00;57426.63;5081886;27;45574;-72
2022/07/22 06:34:25;;;;;;;;;20.33;16.00;;;;;-145.45;100.00;57426.63;5077554;27;45466;-71
2022/07/22 06:36:51;;;;;;;;;15.33;15.33;;;;;-145.45;100.00;57426.63;5095346;27;45323;-72
2022/07/22 06:39:16;;;;;;;;;19.00;17.33;;;;;-145.45;100.00;57426.63;5085384;27;45395;-72
2022/07/22 06:41:42;;;;;;;;;20.33;17.67;;;;;-145.45;100.00;57426.63;5083853;27;45457;-72
2022/07/22 06:44:07;;;;;;;;;18.67;15.67;;;;;-145.45;100.00;57426.63;5085846;27;45384;-72
2022/07/22 06:46:32;;;;;;;;;20.67;16.67;;;;;-145.45;100.00;57426.63;5067472;27;45345;-72
2022/07/22 06:48:58;;;;;;;;;17.00;15.00;;;;;-145.45;100.00;57426.63;5089268;27;45392;-71
2022/07/22 06:51:23;;;;;;;;;18.00;16.33;;;;;-145.45;100.00;57426.63;5094067;27;45418;-74
2022/07/22 06:53:48;;;;;;;;;17.00;15.33;;;;;-145.45;100.00;57426.63;5084555;27;45763;-74
2022/07/22 06:56:14;;;;;;;;;18.33;18.33;;;;;-145.45;100.00;57426.63;5085535;27;45280;-72
2022/07/22 06:58:39;;;;;;;;;19.67;17.33;;;;;-145.45;100.00;57426.63;5090186;27;45336;-75
2022/07/22 07:01:05;;;;;;;;;18.33;15.00;;;;;-145.45;100.00;57426.63;5090255;27;45219;-75
2022/07/22 07:03:30;;;;;;;;;19.67;18.33;;;;;-145.45;100.00;57426.63;5090442;27;45638;-76
2022/07/22 07:05:55;;;;;;;;;17.67;16.67;;;;;-145.45;100.00;57426.63;5070718;28;45199;-76
2022/07/22 07:08:21;;;;;;;;;25.67;19.00;;;;;-145.45;100.00;57426.63;5090242;27;45221;-76
2022/07/22 07:10:46;;;;;;;;;20.00;16.33;;;;;-145.45;100.00;57426.63;5071641;28;47851;-76
2022/07/22 07:13:12;;;;;;;;;18.33;16.33;;;;;-145.45;100.00;57426.63;5089444;27;45308;-76
2022/07/22 07:15:37;;;;;;;;;19.33;17.67;;;;;-145.45;100.00;57426.63;5087099;27;45565;-76
2022/07/22 07:18:02;;;;;;;;;17.33;16.33;;;;;-145.45;100.00;57426.63;5088201;27;45423;-76
2022/07/22 07:20:28;;;;;;;;;14.67;14.67;;;;;-145.45;100.00;57426.63;5085020;27;45332;-75
2022/07/22 07:22:54;;;;;;;;;18.00;15.33;;;;;-145.45;100.00;57426.63;5086054;27;45413;-75
2022/07/22 07:25:20;;;;;;;;;18.67;18.67;;;;;-145.45;100.00;57426.63;5083501;27;45392;-75
2022/07/22 07:27:45;;;;;;;;;19.67;16.00;;;;;-145.45;100.00;57426.63;5085349;27;45629;-75
2022/07/22 07:30:11;;;;;;;;;19.67;14.67;;;;;-145.45;100.00;57426.63;5083314;27;45388;-76
2022/07/22 07:32:37;;;;;;;;;18.00;17.67;;;;;-145.45;100.00;57426.63;5073363;27;45495;-76
2022/07/22 07:35:05;;;;;;;;;23.00;19.33;;;;;-145.45;100.00;57426.63;5087724;27;45375;-76
2022/07/22 07:37:30;;;;;;;;;15.67;15.67;;;;;-145.45;100.00;57426.63;5079151;27;46506;-74
2022/07/22 07:39:57;;;;;;;;;18.00;16.33;;;;;-145.45;100.00;57426.63;5086419;27;46094;-75
2022/07/22 07:42:22;;;;;;;;;20.67;18.00;;;;;-145.45;100.00;57426.63;5096315;27;45351;-77
2022/07/22 07:44:47;;;;;;;;;16.67;16.67;;;;;-145.45;100.00;57426.63;5096648;27;45493;-76
2022/07/22 07:47:17;;;;;;;;;19.67;17.33;;;;;-145.45;100.00;57426.63;5079098;27;45548;-75
2022/07/22 07:49:46;;;;;;;;;15.00;15.00;;;;;-145.45;100.00;57426.63;5091502;27;45341;-75
2022/07/22 07:52:13;;;;;;;;;18.67;17.33;;;;;-145.45;100.00;57426.63;5086436;27;45274;-75
2022/07/22 07:54:42;;;;;;;;;22.67;18.00;;;;;-145.45;100.00;57426.63;5084728;27;45384;-74
2022/07/22 07:57:10;;;;;;;;;20.33;15.00;;;;;-145.45;100.00;57426.63;5095469;27;45807;-75
2022/07/22 07:59:37;;;;;;;;;17.00;16.00;;;;;-145.45;100.00;57426.63;5098059;27;45890;-73
2022/07/22 08:02:03;;;;;;;;;15.33;15.33;;;;;-145.45;100.00;57426.63;5090121;27;45275;-75
2022/07/22 08:04:29;;;;;;;;;20.00;16.67;;;;;-145.45;100.00;57426.63;5099186;27;45300;-75
2022/07/22 08:06:54;;;;;;;;;20.67;16.33;;;;;-145.45;100.00;57426.63;5076331;27;45289;-75
2022/07/22 08:09:19;;;;;;;;;16.33;16.00;;;;;-145.45;100.00;57426.63;5086115;27;47829;-76
2022/07/22 08:11:45;;;;;;;;;17.33;15.33;;;;;-145.45;100.00;57426.63;5091854;27;45315;-75
2022/07/22 08:14:11;;;;;;;;;15.00;15.00;;;;;-145.45;100.00;57426.63;5090962;27;45365;-75
2022/07/22 08:16:36;;;;;;;;;18.67;16.33;;;;;-145.45;100.00;57426.63;5085146;27;45463;-75
2022/07/22 08:19:02;;;;;;;;;18.67;15.33;;;;;-145.45;100.00;57426.63;5085198;27;47680;-74
2022/07/22 08:21:28;;;;;;;;;19.33;16.33;;;;;-145.45;100.00;57426.63;5084990;27;45388;-74
2022/07/22 08:23:53;;;;;;;;;22.33;18.00;;;;;-145.45;100.00;57426.63;5089496;27;45369;-74
2022/07/22 08:26:18;;;;;;;;;16.00;15.00;;;;;-145.45;100.00;57426.63;5069410;27;45499;-74
2022/07/22 08:28:44;;;;;;;;;15.33;15.33;;;;;-145.45;100.00;57426.63;5091743;27;46695;-74
2022/07/22 08:31:10;;;;;;;;;24.00;20.00;;;;;-145.45;100.00;57426.63;5088564;27;45487;-74
2022/07/22 08:33:35;;;;;;;;;18.33;17.00;;;;;-145.45;100.00;57426.63;5082702;27;45372;-74
2022/07/22 08:36:01;;;;;;;;;20.00;19.33;;;;;-145.45;100.00;57426.63;5088096;27;45245;-74
2022/07/22 08:38:27;;;;;;;;;21.33;18.00;;;;;-145.45;100.00;57426.63;5092045;27;45307;-71
2022/07/22 08:40:55;;;;;;;;;20.67;17.67;;;;;-145.45;100.00;57426.63;5087581;27;45248;-71
2022/07/22 08:43:21;;;;;;;;;20.67;17.00;;;;;-145.45;100.00;57426.63;5100070;27;45664;-71
2022/07/22 08:45:48;;;;;;;;;21.00;19.67;;;;;-145.45;100.00;57426.63;5085703;27;45425;-72
2022/07/22 08:48:13;;;;;;;;;19.00;17.00;;;;;-145.45;100.00;57426.63;5088536;27;45893;-72
2022/07/22 08:50:39;;;;;;;;;19.00;16.67;;;;;-145.45;100.00;57426.63;5086070;27;45293;-72
2022/07/22 08:53:04;;;;;;;;;18.33;17.00;;;;;-145.45;100.00;57426.63;5087807;27;45348;-72
2022/07/22 08:55:30;;;;;;;;;24.67;18.00;;;;;-145.45;100.00;57426.63;5081187;27;45388;-72
2022/07/22 08:57:55;;;;;;;;;24.33;18.00;;;;;-145.45;100.00;57426.63;5086565;27;46445;-72
2022/07/22 09:00:22;;;;;;;;;22.00;19.00;;;;;-145.45;100.00;57426.63;5081260;27;45435;-71
2022/07/22 09:02:48;;;;;;;;;22.67;19.00;;;;;-145.45;100.00;57426.63;5072067;27;45476;-71
2022/07/22 09:05:15;;;;;;;;;16.67;14.67;;;;;-145.45;100.00;57426.63;5081848;27;45352;-71
2022/07/22 09:07:42;;;;;;;;;16.00;15.00;;;;;-145.45;100.00;57426.63;5071003;27;48434;-72
2022/07/22 09:10:10;;;;;;;;;16.33;15.33;;;;;-145.45;100.00;57426.63;5077239;27;45545;-71
2022/07/22 09:12:52;;;;;;;;;18.67;18.33;;;;;-145.45;100.00;57426.63;5100527;27;45398;-72
2022/07/22 09:15:31;;;;;;;;;16.33;16.33;;;;;-145.45;100.00;57426.63;5073518;28;47289;-71
2022/07/22 09:17:58;;;;;;;;;17.33;17.00;;;;;-145.45;100.00;57426.63;5074626;27;47082;-71
2022/07/22 09:20:24;;;;;;;;;19.33;19.33;;;;;-145.45;100.00;57426.63;5081350;27;45351;-71
2022/07/22 09:22:50;;;;;;;;;23.67;19.00;;;;;-145.45;100.00;57426.63;5089658;27;45430;-71
2022/07/22 09:25:27;;;;;;;;;21.67;17.67;;;;;-145.45;100.00;57426.63;5079931;27;45531;-71
2022/07/22 09:27:54;;;;;;;;;17.33;15.00;;;;;-145.45;100.00;57426.63;5076996;27;47553;-72
2022/07/22 09:30:24;;;;;;;;;21.00;19.00;;;;;-145.45;100.00;57426.63;5086633;27;45363;-72
2022/07/22 09:32:52;;;;;;;;;21.75;17.50;;;;;-145.45;100.00;57426.63;5087244;27;45404;-72
2022/07/22 09:35:19;;;;;;;;;22.67;18.67;;;;;-145.45;100.00;57426.63;5084613;27;45590;-72
2022/07/22 09:38:05;;;;;;;;;20.50;19.50;;;;;-145.45;100.00;57426.63;5085718;27;45312;-71
2022/07/22 09:40:37;;;;;;;;;19.00;16.75;;;;;-145.45;100.00;57426.63;5090453;27;45558;-72
2022/07/22 09:43:11;;;;;;;;;17.25;15.00;;;;;-145.45;100.00;57426.63;5084328;27;45354;-72
2022/07/22 09:45:47;;;;;;;;;17.00;16.25;;;;;-145.45;100.00;57426.63;5085001;27;45375;-71
2022/07/22 09:48:13;;;;;;;;;17.00;17.00;;;;;-145.45;100.00;57426.63;5086836;27;45834;-71
2022/07/22 09:50:39;;;;;;;;;19.50;19.50;;;;;-145.45;100.00;57426.63;5083925;27;45373;-72
2022/07/22 09:53:04;;;;;;;;;17.75;16.75;;;;;-145.45;100.00;57426.63;5089155;27;45312;-71
2022/07/22 09:55:30;;;;;;;;;22.00;18.75;;;;;-145.45;100.00;57426.63;5096258;27;45241;-72
2022/07/22 09:57:57;;;;;;;;;20.50;18.50;;;;;-145.45;100.00;57426.63;5084280;27;45400;-71
2022/07/22 10:00:26;;;;;;;;;16.00;14.25;;;;;-145.45;100.00;57426.63;5079227;27;45331;-71
2022/07/22 10:03:00;;;;;;;;;19.75;18.00;;;;;-145.45;100.00;57426.63;5084743;27;45308;-71
2022/07/22 10:05:30;;;;;;;;;21.25;18.50;;;;;-145.45;100.00;57426.63;5082857;27;45375;-71
2022/07/22 10:07:57;;;;;;;;;21.75;18.00;;;;;-145.45;100.00;57426.63;5075808;27;46768;-71
2022/07/22 10:10:28;;;;;;;;;24.25;19.50;;;;;-145.45;100.00;57426.63;5090033;27;45371;-75
2022/07/22 10:12:55;;;;;;;;;17.75;17.00;;;;;-145.45;100.00;57426.63;5077203;27;45422;-74
2022/07/22 10:15:22;;;;;;;;;21.00;18.00;;;;;-145.45;100.00;57426.63;5079613;27;45511;-75
2022/07/22 10:17:50;;;;;;;;;19.50;17.75;;;;;-145.45;100.00;57426.63;5086471;27;46086;-75
2022/07/22 10:20:19;;;;;;;;;23.00;19.50;;;;;-145.45;100.00;57426.63;5079686;27;45391;-74
2022/07/22 10:22:49;;;;;;;;;21.25;19.00;;;;;-145.45;100.00;57426.63;5087100;27;45266;-75
2022/07/22 10:25:18;;;;;;;;;16.25;15.50;;;;;-145.45;100.00;57426.63;5082615;27;45691;-75
2022/07/22 10:27:43;;;;;;;;;20.00;17.25;;;;;-145.45;100.00;57426.63;5086878;27;46184;-74
2022/07/22 10:30:09;;;;;;;;;22.33;20.67;;;;;-145.45;100.00;57426.63;5075398;27;45432;-74
2022/07/22 10:32:35;;;;;;;;;18.25;17.25;;;;;-145.45;100.00;57426.63;5074441;27;45415;-74
2022/07/22 10:35:03;;;;;;;;;21.75;20.50;;;;;-145.45;100.00;57426.63;5089826;27;45196;-75
2022/07/22 10:37:35;;;;;;;;;23.33;19.33;;;;;-145.45;100.00;57426.63;5073454;27;45407;-74
2022/07/22 10:40:19;;;;;;;;;23.33;21.33;;;;;-145.45;100.00;57426.63;5087466;27;45368;-74
2022/07/22 10:42:57;;;;;;;;;23.00;21.33;;;;;-145.45;100.00;57426.63;5091697;27;45391;-75
2022/07/22 10:45:32;;;;;;;;;21.67;20.67;;;;;-145.45;100.00;57426.63;5061454;27;45270;-73
2022/07/22 10:48:00;;;;;;;;;20.33;19.00;;;;;-145.45;100.00;57426.63;5081995;27;46131;-71
2022/07/22 10:50:35;;;;;;;;;23.00;20.00;;;;;-145.45;100.00;57426.63;5085265;27;45301;-71